createdAt,value
2019-05-03T00:02:59.424Z,10.04
2019-05-03T00:06:05.296Z,9.94
2019-05-03T00:09:09.253Z,9.96
2019-05-03T00:12:12.690Z,9.92
2019-05-03T00:15:22.788Z,9.93
2019-05-03T00:18:24.786Z,9.80
2019-05-03T00:21:26.684Z,9.78
2019-05-03T00:24:28.634Z,9.80
2019-05-03T00:27:32.261Z,9.85
2019-05-03T00:30:34.840Z,9.86
2019-05-03T00:33:37.789Z,9.79
2019-05-03T00:36:47.157Z,9.74
2019-05-03T00:39:53.678Z,9.71
2019-05-03T00:42:57.343Z,9.66
2019-05-03T00:45:59.288Z,9.75
2019-05-03T00:49:01.214Z,9.85
2019-05-03T00:52:04.430Z,9.96
2019-05-03T00:55:16.076Z,10.03
2019-05-03T00:58:11.752Z,10.08
2019-05-03T01:01:14.317Z,10.10
2019-05-03T01:04:16.292Z,10.07
2019-05-03T01:07:18.236Z,10.03
2019-05-03T01:10:22.418Z,10.02
2019-05-03T01:13:24.166Z,10.01
2019-05-03T01:16:26.075Z,10.03
2019-05-03T01:19:28.072Z,10.05
2019-05-03T01:22:31.994Z,10.06
2019-05-03T01:25:35.546Z,10.09
2019-05-03T01:28:38.885Z,10.11
2019-05-03T01:31:42.176Z,10.13
2019-05-03T01:34:44.194Z,10.17
2019-05-03T01:37:47.359Z,10.23
2019-05-03T01:40:49.439Z,10.25
2019-05-03T01:43:52.618Z,10.28
2019-05-03T01:46:56.620Z,10.31
2019-05-03T01:50:00.338Z,10.38
2019-05-03T01:53:04.597Z,10.30
2019-05-03T01:56:06.506Z,10.29
2019-05-03T01:59:08.549Z,10.30
2019-05-03T02:02:13.069Z,10.24
2019-05-03T02:05:33.430Z,10.21
2019-05-03T02:08:35.340Z,10.19
2019-05-03T02:11:37.348Z,10.11
2019-05-03T02:14:39.260Z,10.16
2019-05-03T02:17:42.667Z,10.22
2019-05-03T02:20:44.871Z,10.27
2019-05-03T02:23:46.832Z,10.32
2019-05-03T02:26:48.781Z,10.34
2019-05-03T02:29:52.429Z,10.36
2019-05-03T02:32:54.792Z,10.37
2019-05-03T02:35:56.747Z,10.35
2019-05-03T02:38:58.672Z,10.34
2019-05-03T02:42:07.915Z,10.29
2019-05-03T02:45:09.066Z,10.29
2019-05-03T02:48:18.628Z,10.24
2019-05-03T02:51:20.555Z,10.14
2019-05-03T02:54:22.491Z,10.09
2019-05-03T02:57:25.893Z,10.03
2019-05-03T03:00:47.063Z,10.00
2019-05-03T03:03:49.743Z,10.03
2019-05-03T03:06:55.461Z,10.05
2019-05-03T03:09:58.388Z,10.05
2019-05-03T03:13:05.751Z,10.05
2019-05-03T03:16:09.056Z,10.06
2019-05-03T03:19:15.873Z,10.07
2019-05-03T03:50:05.982Z,10.57
2019-05-03T03:53:10.060Z,10.66
2019-05-03T03:56:16.058Z,10.88
2019-05-03T03:59:18.406Z,11.07
2019-05-03T04:02:20.463Z,11.20
2019-05-03T04:05:25.188Z,11.28
2019-05-03T04:08:26.197Z,11.37
2019-05-03T04:11:28.220Z,11.51
2019-05-03T04:14:38.544Z,11.65
2019-05-03T04:17:59.706Z,11.78
2019-05-03T04:21:01.738Z,11.95
2019-05-03T04:24:06.024Z,12.21
2019-05-03T04:27:18.012Z,12.67
2019-05-03T04:30:11.641Z,13.10
2019-05-03T04:33:16.032Z,13.42
2019-05-03T04:36:17.640Z,13.61
2019-05-03T04:39:20.385Z,13.76
2019-05-03T04:42:25.357Z,13.84
2019-05-03T04:45:26.849Z,13.96
2019-05-03T04:48:28.910Z,14.05
2019-05-03T04:51:30.924Z,14.17
2019-05-03T04:54:41.351Z,14.17
2019-05-03T04:57:46.787Z,14.13
2019-05-03T05:00:48.522Z,14.11
2019-05-03T05:03:50.455Z,14.09
2019-05-03T05:06:52.447Z,14.06
2019-05-03T05:09:56.268Z,13.99
2019-05-03T05:12:58.600Z,13.90
2019-05-03T05:16:01.162Z,13.73
2019-05-03T05:19:07.919Z,13.62
2019-05-03T05:22:15.553Z,13.57
2019-05-03T05:25:19.847Z,13.42
2019-05-03T05:28:26.673Z,13.35
2019-05-03T05:31:28.604Z,13.24
2019-05-03T05:34:30.574Z,13.15
2019-05-03T05:37:32.582Z,13.19
2019-05-03T05:40:35.011Z,13.12
2019-05-03T05:43:37.624Z,13.11
2019-05-03T05:46:59.128Z,12.90
2019-05-03T05:50:04.872Z,12.74
2019-05-03T05:53:06.828Z,12.70
2019-05-03T05:56:25.741Z,12.62
2019-05-03T05:59:29.582Z,12.52
2019-05-03T06:02:31.786Z,12.44
2019-05-03T06:05:35.553Z,12.45
2019-05-03T06:08:39.670Z,12.46
2019-05-03T06:12:00.567Z,12.53
2019-05-03T06:15:06.471Z,12.54
2019-05-03T06:18:14.678Z,12.53
2019-05-03T06:21:21.630Z,12.57
2019-05-03T06:24:25.382Z,12.54
2019-05-03T06:27:29.280Z,12.46
2019-05-03T06:30:35.012Z,12.34
2019-05-03T06:33:36.929Z,12.25
2019-05-03T06:36:40.151Z,12.22
2019-05-03T06:39:42.071Z,12.23
2019-05-03T06:42:52.409Z,12.23
2019-05-03T06:45:50.483Z,12.23
2019-05-03T06:48:52.118Z,12.26
2019-05-03T06:51:54.737Z,12.28
2019-05-03T06:55:00.378Z,12.29
2019-05-03T06:58:00.648Z,12.39
2019-05-03T07:01:16.046Z,12.44
2019-05-03T07:04:36.298Z,12.45
2019-05-03T07:07:40.085Z,12.40
2019-05-03T07:10:44.482Z,12.47
2019-05-03T07:13:46.558Z,12.70
2019-05-03T07:16:48.475Z,12.74
2019-05-03T07:19:51.510Z,12.80
2019-05-03T07:22:55.768Z,12.94
2019-05-03T07:25:59.114Z,13.01
2019-05-03T07:29:01.089Z,12.92
2019-05-03T07:32:05.067Z,12.91
2019-05-03T07:35:07.171Z,12.89
2019-05-03T07:38:09.108Z,12.93
2019-05-03T07:41:11.017Z,13.13
2019-05-03T07:44:15.136Z,13.25
2019-05-03T07:47:17.216Z,13.40
2019-05-03T07:50:19.099Z,13.48
2019-05-03T07:53:21.091Z,13.58
2019-05-03T07:56:25.483Z,13.58
2019-05-03T07:59:28.825Z,13.49
2019-05-03T08:02:30.752Z,13.45
2019-05-03T08:05:32.640Z,13.57
2019-05-03T08:08:35.408Z,13.56
2019-05-03T08:11:37.792Z,13.52
2019-05-03T08:14:39.655Z,13.62
2019-05-03T08:17:41.674Z,13.76
2019-05-03T08:20:45.155Z,14.07
2019-05-03T08:23:47.460Z,14.22
2019-05-03T08:26:49.325Z,14.65
2019-05-03T08:29:51.282Z,14.75
2019-05-03T08:33:01.002Z,14.92
2019-05-03T08:36:04.840Z,15.18
2019-05-03T08:39:06.910Z,15.19
2019-05-03T08:42:10.674Z,15.19
2019-05-03T08:45:14.649Z,15.01
2019-05-03T08:48:17.471Z,15.06
2019-05-03T08:51:19.434Z,15.21
2019-05-03T08:54:21.356Z,15.18
2019-05-03T08:57:25.422Z,15.05
2019-05-03T09:00:28.984Z,15.11
2019-05-03T09:03:30.935Z,15.09
2019-05-03T09:06:32.799Z,15.18
2019-05-03T09:09:36.951Z,15.41
2019-05-03T09:12:57.288Z,15.58
2019-05-03T09:15:59.315Z,15.41
2019-05-03T09:19:01.258Z,15.30
2019-05-03T09:22:06.277Z,15.41
2019-05-03T09:25:08.388Z,15.63
2019-05-03T09:28:10.377Z,15.68
2019-05-03T09:31:12.432Z,15.78
2019-05-03T09:34:14.843Z,15.87
2019-05-03T09:37:17.052Z,16.17
2019-05-03T09:40:18.959Z,16.47
2019-05-03T09:43:21.026Z,16.70
2019-05-03T09:46:25.659Z,16.67
2019-05-03T09:49:26.925Z,16.41
2019-05-03T09:52:28.844Z,16.42
2019-05-03T09:55:32.598Z,16.78
2019-05-03T09:58:37.918Z,17.08
2019-05-03T10:01:38.555Z,17.11
2019-05-03T10:04:40.561Z,17.01
2019-05-03T10:07:42.513Z,17.03
2019-05-03T10:11:05.295Z,17.12
2019-05-03T10:14:08.549Z,17.26
2019-05-03T10:17:28.699Z,17.12
2019-05-03T10:20:30.698Z,17.07
2019-05-03T10:23:35.782Z,17.10
2019-05-03T10:26:38.125Z,17.11
2019-05-03T10:29:40.034Z,17.23
2019-05-03T10:32:52.874Z,17.21
2019-05-03T10:35:54.873Z,17.38
2019-05-03T10:38:56.975Z,17.34
2019-05-03T10:41:58.929Z,17.38
2019-05-03T10:45:00.843Z,17.23
2019-05-03T10:48:04.806Z,17.33
2019-05-03T10:51:06.756Z,17.54
2019-05-03T10:54:08.775Z,18.02
2019-05-03T10:57:15.926Z,18.07
2019-05-03T11:00:42.553Z,18.11
2019-05-03T11:03:23.923Z,18.08
2019-05-03T11:06:25.972Z,18.13
2019-05-03T11:09:27.954Z,18.00
2019-05-03T11:12:29.964Z,18.00
2019-05-03T11:15:31.891Z,17.92
2019-05-03T11:18:34.788Z,17.86
2019-05-03T11:21:36.695Z,17.87
2019-05-03T11:24:38.985Z,17.76
2019-05-03T11:27:44.615Z,17.62
2019-05-03T11:30:55.313Z,17.70
2019-05-03T11:33:50.762Z,17.84
2019-05-03T11:36:57.320Z,17.95
2019-05-03T11:39:59.270Z,17.90
2019-05-03T11:43:02.068Z,17.49
2019-05-03T11:46:04.052Z,17.13
2019-05-03T11:49:05.982Z,16.83
2019-05-03T11:52:07.869Z,16.64
2019-05-03T11:55:11.822Z,16.51
2019-05-03T11:58:18.069Z,16.34
2019-05-03T12:01:21.947Z,16.42
2019-05-03T12:04:24.953Z,16.70
2019-05-03T12:07:39.345Z,16.84
2019-05-03T12:10:51.608Z,17.11
2019-05-03T12:13:40.820Z,17.20
2019-05-03T12:19:50.974Z,17.44
2019-05-03T12:22:54.224Z,17.78
2019-05-03T12:25:57.804Z,18.17
2019-05-03T12:29:00.120Z,18.26
2019-05-03T12:32:02.121Z,18.04
2019-05-03T12:35:06.097Z,17.73
2019-05-03T12:38:08.211Z,17.65
2019-05-03T12:41:10.189Z,17.76
2019-05-03T12:44:12.209Z,18.01
2019-05-03T12:47:14.601Z,18.11
2019-05-03T12:50:18.183Z,18.00
2019-05-03T12:53:21.989Z,17.67
2019-05-03T12:56:32.378Z,17.14
2019-05-03T12:59:30.980Z,16.83
2019-05-03T13:02:34.763Z,16.59
2019-05-03T13:05:36.938Z,16.68
2019-05-03T13:08:40.478Z,16.80
2019-05-03T13:11:53.025Z,16.93
2019-05-03T13:14:48.976Z,17.00
2019-05-03T13:17:50.943Z,17.16
2019-05-03T13:20:52.875Z,17.07
2019-05-03T13:23:54.983Z,17.01
2019-05-03T13:26:57.135Z,16.74
2019-05-03T13:29:59.400Z,16.50
2019-05-03T13:33:01.321Z,16.18
2019-05-03T13:36:04.039Z,16.10
2019-05-03T13:39:13.357Z,16.05
2019-05-03T13:42:11.919Z,16.48
2019-05-03T13:45:13.888Z,16.73
2019-05-03T13:48:20.993Z,16.89
2019-05-03T13:51:19.708Z,17.05
2019-05-03T13:54:21.623Z,17.20
2019-05-03T13:57:24.585Z,17.26
2019-05-03T14:00:26.650Z,17.24
2019-05-03T14:03:28.718Z,17.16
2019-05-03T14:06:33.603Z,16.97
2019-05-03T14:09:34.900Z,16.89
2019-05-03T14:12:37.238Z,16.75
2019-05-03T14:15:39.231Z,16.55
2019-05-03T14:18:41.585Z,16.68
2019-05-03T14:21:45.565Z,16.74
2019-05-03T14:24:47.707Z,16.72
2019-05-03T14:27:59.668Z,16.63
2019-05-03T14:31:05.131Z,16.50
2019-05-03T14:34:10.908Z,16.47
2019-05-03T14:37:13.294Z,16.68
2019-05-03T14:40:15.236Z,16.78
2019-05-03T14:43:17.213Z,16.85
2019-05-03T14:46:30.033Z,17.05
2019-05-03T14:49:23.081Z,17.07
2019-05-03T14:52:25.268Z,17.01
2019-05-03T14:55:42.347Z,16.76
2019-05-03T14:58:52.294Z,16.60
2019-05-03T15:01:56.097Z,16.52
2019-05-03T15:04:58.219Z,16.50
2019-05-03T15:08:00.246Z,16.54
2019-05-03T15:11:02.411Z,16.39
2019-05-03T15:14:05.625Z,16.36
2019-05-03T15:17:07.956Z,16.29
2019-05-03T15:20:10.970Z,16.33
2019-05-03T15:23:14.675Z,16.26
2019-05-03T15:26:16.836Z,16.09
2019-05-03T15:29:18.871Z,16.03
2019-05-03T15:32:20.878Z,16.05
2019-05-03T15:35:23.052Z,15.98
2019-05-03T15:38:25.044Z,15.68
2019-05-03T15:41:27.033Z,15.55
2019-05-03T15:44:47.554Z,15.52
2019-05-03T15:47:51.403Z,15.53
2019-05-03T15:50:55.183Z,15.46
2019-05-03T15:53:57.281Z,15.36
2019-05-03T15:56:59.234Z,15.29
2019-05-03T16:00:03.088Z,15.24
2019-05-03T16:03:10.460Z,15.13
2019-05-03T16:06:11.284Z,15.12
2019-05-03T16:09:15.221Z,14.88
2019-05-03T16:12:18.321Z,14.58
2019-05-03T16:15:21.867Z,14.49
2019-05-03T16:18:24.603Z,14.34
2019-05-03T16:21:27.684Z,14.20
2019-05-03T16:24:35.491Z,14.14
2019-05-03T16:27:39.365Z,14.22
2019-05-03T16:30:45.415Z,14.28
2019-05-03T16:33:49.367Z,14.34
2019-05-03T16:36:54.855Z,14.45
2019-05-03T16:39:57.903Z,14.58
2019-05-03T16:42:59.939Z,14.65
2019-05-03T16:46:01.910Z,14.71
2019-05-03T16:49:04.562Z,14.64
2019-05-03T16:52:08.221Z,14.52
2019-05-03T16:55:10.209Z,14.31
2019-05-03T16:58:12.227Z,14.13
2019-05-03T17:01:17.831Z,13.91
2019-05-03T17:04:30.252Z,13.78
2019-05-03T17:07:45.417Z,13.66
2019-05-03T17:10:52.046Z,13.45
2019-05-03T17:13:57.637Z,13.11
2019-05-03T17:17:00.336Z,12.94
2019-05-03T17:20:05.611Z,12.82
2019-05-03T17:23:09.071Z,12.76
2019-05-03T17:26:11.092Z,12.53
2019-05-03T17:29:13.122Z,12.41
2019-05-03T17:32:15.398Z,12.37
2019-05-03T17:35:18.870Z,12.31
2019-05-03T17:38:20.807Z,12.23
2019-05-03T17:41:28.611Z,12.20
2019-05-03T17:44:34.523Z,12.14
2019-05-03T17:47:38.993Z,12.08
2019-05-03T17:50:40.979Z,12.01
2019-05-03T17:53:56.870Z,11.95
2019-05-03T17:57:17.725Z,11.93
2019-05-03T18:00:35.301Z,11.84
2019-05-03T18:03:39.068Z,11.68
2019-05-03T18:06:42.926Z,11.58
2019-05-03T18:09:46.716Z,11.52
2019-05-03T18:12:48.979Z,11.45
2019-05-03T18:15:54.355Z,11.30
2019-05-03T18:18:56.537Z,11.23
2019-05-03T18:21:59.893Z,11.13
2019-05-03T18:25:04.952Z,11.05
2019-05-03T18:28:07.184Z,10.91
2019-05-03T18:31:09.142Z,10.81
2019-05-03T18:34:19.176Z,10.85
2019-05-03T18:37:18.386Z,10.90
2019-05-03T18:40:20.702Z,10.86
2019-05-03T18:43:30.583Z,10.80
2019-05-03T18:46:37.899Z,10.74
2019-05-03T18:49:47.531Z,10.65
2019-05-03T18:52:51.896Z,10.60
2019-05-03T18:55:55.182Z,10.56
2019-05-03T18:58:57.681Z,10.62
2019-05-03T19:02:01.882Z,10.60
2019-05-03T19:05:06.663Z,10.58
2019-05-03T19:08:19.689Z,10.56
2019-05-03T19:11:31.131Z,10.52
2019-05-03T19:14:36.397Z,10.42
2019-05-03T19:17:41.498Z,10.24
2019-05-03T19:20:45.584Z,10.16
2019-05-03T19:23:47.524Z,10.06
2019-05-03T19:26:49.497Z,9.95
2019-05-03T19:29:55.412Z,9.87
2019-05-03T19:32:57.813Z,9.73
2019-05-03T19:36:01.172Z,9.55
2019-05-03T19:39:06.462Z,9.38
2019-05-03T19:42:15.398Z,9.27
2019-05-03T19:45:21.024Z,9.12
2019-05-03T19:48:25.929Z,9.07
2019-05-03T19:51:30.726Z,9.02
2019-05-03T19:54:36.520Z,8.90
2019-05-03T19:57:42.283Z,8.84
2019-05-03T20:00:52.439Z,8.74
2019-05-03T20:04:12.454Z,8.68
2019-05-03T20:07:22.063Z,8.60
2019-05-03T20:10:25.397Z,8.52
2019-05-03T20:13:34.602Z,8.46
2019-05-03T20:16:31.767Z,8.33
2019-05-03T20:19:34.704Z,8.26
2019-05-03T20:22:45.116Z,8.13
2019-05-03T20:25:47.159Z,8.07
2019-05-03T20:28:49.111Z,8.07
2019-05-03T20:31:51.127Z,7.98
2019-05-03T20:34:56.198Z,7.91
2019-05-03T20:38:00.076Z,7.82
2019-05-03T20:41:05.239Z,7.74
2019-05-03T20:44:11.018Z,7.62
2019-05-03T20:47:16.538Z,7.63
2019-05-03T20:50:20.561Z,7.62
2019-05-03T20:53:25.121Z,7.55
2019-05-03T20:56:28.871Z,7.37
2019-05-03T20:59:42.153Z,7.28
2019-05-03T21:02:50.518Z,7.18
2019-05-03T21:05:42.163Z,7.03
2019-05-03T21:08:52.921Z,7.02
2019-05-03T21:11:48.464Z,6.94
2019-05-03T21:14:50.419Z,6.77
2019-05-03T21:17:55.564Z,6.70
2019-05-03T21:21:09.426Z,6.66
2019-05-03T21:24:13.215Z,6.63
2019-05-03T21:27:15.332Z,6.55
2019-05-03T21:30:17.454Z,6.48
2019-05-03T21:33:19.443Z,6.43
2019-05-03T21:36:21.425Z,6.37
2019-05-03T21:39:24.643Z,6.28
2019-05-03T21:42:27.013Z,6.24
2019-05-03T21:45:37.104Z,6.20
2019-05-03T21:48:59.689Z,6.17
2019-05-03T21:52:01.640Z,6.15
2019-05-03T21:55:05.600Z,5.98
2019-05-03T21:58:07.513Z,5.93
2019-05-03T22:01:11.258Z,6.00
2019-05-03T22:04:15.420Z,6.00
2019-05-03T22:07:17.112Z,5.98
2019-05-03T22:10:19.049Z,5.96
2019-05-03T22:13:21.046Z,5.88
2019-05-03T22:16:41.406Z,5.78
2019-05-03T22:19:45.134Z,5.73
2019-05-03T22:22:48.879Z,5.70
2019-05-03T22:25:50.807Z,5.71
2019-05-03T22:28:54.712Z,5.69
2019-05-03T22:31:56.754Z,5.63
2019-05-03T22:34:58.635Z,5.66
2019-05-03T22:38:00.674Z,5.67
2019-05-03T22:41:02.736Z,5.65
2019-05-03T22:44:04.716Z,5.70
2019-05-03T22:47:07.744Z,5.68
2019-05-03T22:50:09.939Z,5.66
2019-05-03T22:53:11.875Z,5.68
2019-05-03T22:56:14.512Z,5.71
2019-05-03T22:59:16.913Z,5.74
2019-05-03T23:02:18.920Z,5.73
2019-05-03T23:05:20.833Z,5.78
2019-05-03T23:08:22.748Z,5.75
2019-05-03T23:11:24.718Z,5.69
2019-05-03T23:14:26.633Z,5.66
2019-05-03T23:17:28.537Z,5.63
2019-05-03T23:20:41.390Z,5.65
2019-05-03T23:23:51.520Z,5.62
2019-05-03T23:26:53.378Z,5.53
2019-05-03T23:29:55.434Z,5.54
2019-05-03T23:32:58.831Z,5.54
2019-05-03T23:36:00.790Z,5.66
2019-05-03T23:39:05.102Z,5.83
2019-05-03T23:42:07.472Z,5.95
2019-05-03T23:45:09.427Z,5.99
2019-05-03T23:48:11.326Z,6.13
2019-05-03T23:51:31.444Z,6.17
2019-05-03T23:54:33.360Z,6.12
2019-05-03T23:57:35.674Z,6.08
